createdAt,value
2019-02-27T00:02:04.525Z,36.00
2019-02-27T00:04:35.486Z,39.23
2019-02-27T00:07:05.511Z,36.67
2019-02-27T00:09:35.342Z,37.60
2019-02-27T00:12:05.278Z,40.80
2019-02-27T00:14:35.135Z,34.47
2019-02-27T00:17:05.048Z,37.23
2019-02-27T00:19:34.861Z,32.47
2019-02-27T00:22:05.282Z,39.10
2019-02-27T00:24:35.104Z,33.20
2019-02-27T00:27:04.962Z,35.87
2019-02-27T00:29:35.130Z,36.53
2019-02-27T00:32:04.950Z,32.43
2019-02-27T00:34:34.781Z,36.63
2019-02-27T00:37:04.823Z,40.77
2019-02-27T00:39:34.653Z,32.80
2019-02-27T00:42:04.695Z,29.50
2019-02-27T00:44:34.904Z,33.87
2019-02-27T00:47:05.058Z,33.40
2019-02-27T00:49:34.915Z,36.53
2019-02-27T00:52:04.915Z,46.00
2019-02-27T00:54:35.081Z,43.37
2019-02-27T00:57:05.002Z,46.27
2019-02-27T00:59:34.817Z,49.50
2019-02-27T01:02:04.769Z,58.90
2019-02-27T01:04:35.807Z,43.60
2019-02-27T01:07:05.637Z,35.67
2019-02-27T01:09:37.214Z,39.83
2019-02-27T01:12:07.044Z,34.90
2019-02-27T01:14:37.638Z,37.33
2019-02-27T01:17:08.694Z,31.90
2019-02-27T01:19:39.374Z,35.17
2019-02-27T01:22:09.156Z,32.20
2019-02-27T01:24:39.147Z,33.63
2019-02-27T01:27:09.406Z,33.70
2019-02-27T01:29:39.610Z,33.53
2019-02-27T01:32:09.451Z,33.03
2019-02-27T01:34:39.286Z,34.90
2019-02-27T01:37:09.341Z,32.23
2019-02-27T01:39:39.178Z,28.43
2019-02-27T01:42:10.320Z,33.93
2019-02-27T01:44:43.982Z,32.30
2019-02-27T01:47:13.302Z,38.47
2019-02-27T01:49:43.156Z,33.93
2019-02-27T01:52:13.023Z,36.33
2019-02-27T01:54:42.850Z,34.60
2019-02-27T01:57:12.808Z,32.50
2019-02-27T01:59:42.746Z,34.63
2019-02-27T02:02:12.578Z,27.63
2019-02-27T02:04:43.371Z,33.57
2019-02-27T02:07:13.400Z,37.80
2019-02-27T02:09:44.708Z,38.60
2019-02-27T02:12:20.832Z,33.33
2019-02-27T02:14:58.911Z,38.97
2019-02-27T02:18:03.155Z,32.63
2019-02-27T02:21:01.882Z,28.77
2019-02-27T02:24:28.296Z,30.63
2019-02-27T02:27:35.763Z,35.53
2019-02-27T02:30:46.849Z,31.60
2019-02-27T02:33:30.310Z,31.73
2019-02-27T02:36:07.385Z,29.27
2019-02-27T02:39:17.921Z,34.07
2019-02-27T02:42:24.359Z,33.20
2019-02-27T02:45:20.351Z,31.70
2019-02-27T02:48:04.295Z,36.33
2019-02-27T02:51:14.988Z,33.13
2019-02-27T02:54:00.678Z,32.87
2019-02-27T02:57:00.565Z,32.37
2019-02-27T02:59:51.129Z,38.07
2019-02-27T03:02:37.449Z,36.73
2019-02-27T03:05:48.914Z,33.50
2019-02-27T03:08:46.135Z,36.43
2019-02-27T03:12:07.585Z,34.07
2019-02-27T03:15:10.420Z,34.33
2019-02-27T03:18:20.427Z,30.67
2019-02-27T03:21:40.971Z,32.43
2019-02-27T03:24:29.057Z,32.13
2019-02-27T03:27:14.920Z,29.50
2019-02-27T03:30:03.135Z,34.23
2019-02-27T03:32:59.906Z,34.40
2019-02-27T03:36:09.288Z,34.83
2019-02-27T03:39:14.642Z,31.87
2019-02-27T03:42:35.808Z,31.30
2019-02-27T03:45:41.267Z,34.23
2019-02-27T03:48:33.557Z,31.70
2019-02-27T03:51:26.707Z,35.20
2019-02-27T03:54:05.846Z,34.93
2019-02-27T03:57:22.757Z,38.23
2019-02-27T04:00:29.960Z,35.40
2019-02-27T04:03:37.413Z,34.97
2019-02-27T04:06:56.294Z,33.80
2019-02-27T04:09:26.328Z,32.60
2019-02-27T04:11:56.155Z,31.10
2019-02-27T04:14:40.238Z,26.20
2019-02-27T04:17:07.285Z,27.17
2019-02-27T04:19:39.272Z,32.17
2019-02-27T04:22:08.224Z,33.03
2019-02-27T04:24:38.057Z,27.90
2019-02-27T04:27:08.442Z,29.80
2019-02-27T04:29:41.083Z,27.70
2019-02-27T04:32:12.418Z,28.00
2019-02-27T04:34:42.094Z,33.10
2019-02-27T04:37:11.946Z,28.97
2019-02-27T04:39:41.713Z,30.80
2019-02-27T04:42:11.647Z,29.70
2019-02-27T04:44:41.752Z,28.87
2019-02-27T04:47:11.630Z,27.73
2019-02-27T04:49:41.433Z,28.73
2019-02-27T04:52:11.278Z,31.90
2019-02-27T04:54:42.152Z,28.20
2019-02-27T04:57:12.109Z,27.60
2019-02-27T04:59:41.957Z,31.33
2019-02-27T05:02:12.067Z,26.87
2019-02-27T05:04:43.425Z,32.10
2019-02-27T05:07:13.524Z,30.83
2019-02-27T05:09:43.444Z,28.37
2019-02-27T05:12:14.031Z,29.83
2019-02-27T05:14:43.793Z,29.10
2019-02-27T05:17:13.874Z,28.93
2019-02-27T05:19:44.123Z,34.07
2019-02-27T05:22:14.414Z,31.73
2019-02-27T05:24:44.247Z,30.23
2019-02-27T05:27:14.342Z,32.33
2019-02-27T05:29:44.482Z,36.23
2019-02-27T05:32:14.292Z,32.03
2019-02-27T05:34:49.343Z,29.70
2019-02-27T05:37:16.063Z,30.23
2019-02-27T05:39:45.996Z,30.73
2019-02-27T05:42:15.734Z,28.93
2019-02-27T05:44:45.563Z,29.07
2019-02-27T05:47:15.803Z,28.10
2019-02-27T05:49:45.690Z,32.77
2019-02-27T05:52:15.830Z,28.10
2019-02-27T05:54:45.723Z,35.70
2019-02-27T05:57:15.557Z,30.30
2019-02-27T05:59:45.396Z,31.30
2019-02-27T06:02:15.224Z,26.63
2019-02-27T06:04:45.091Z,28.97
2019-02-27T06:07:18.687Z,31.93
2019-02-27T06:09:46.528Z,22.77
2019-02-27T06:12:16.789Z,27.77
2019-02-27T06:14:46.529Z,26.37
2019-02-27T06:17:16.432Z,32.07
2019-02-27T06:19:46.286Z,28.03
2019-02-27T06:22:16.337Z,30.20
2019-02-27T06:24:46.387Z,28.07
2019-02-27T06:27:17.205Z,28.03
2019-02-27T06:29:47.397Z,26.47
2019-02-27T06:32:17.341Z,28.57
2019-02-27T06:34:47.489Z,24.80
2019-02-27T06:37:18.467Z,31.03
2019-02-27T06:39:48.247Z,32.53
2019-02-27T06:42:18.172Z,27.67
2019-02-27T06:44:47.970Z,26.20
2019-02-27T06:47:17.823Z,30.47
2019-02-27T06:49:49.050Z,29.43
2019-02-27T06:52:19.184Z,33.03
2019-02-27T06:54:52.266Z,30.63
2019-02-27T06:57:21.566Z,34.23
2019-02-27T06:59:51.491Z,26.33
2019-02-27T07:02:21.677Z,28.40
2019-02-27T07:04:52.156Z,30.67
2019-02-27T07:07:21.886Z,28.77
2019-02-27T07:09:52.168Z,28.23
2019-02-27T07:12:22.389Z,29.03
2019-02-27T07:14:52.687Z,30.20
2019-02-27T07:17:22.537Z,30.87
2019-02-27T07:19:52.423Z,30.10
2019-02-27T07:22:22.632Z,35.57
2019-02-27T07:24:52.767Z,26.87
2019-02-27T07:27:23.070Z,30.57
2019-02-27T07:29:53.117Z,28.73
2019-02-27T07:32:22.950Z,28.40
2019-02-27T07:34:52.814Z,30.00
2019-02-27T07:37:23.165Z,33.57
2019-02-27T07:39:53.012Z,30.13
2019-02-27T07:42:22.818Z,27.90
2019-02-27T07:44:52.757Z,23.53
2019-02-27T07:47:22.996Z,28.63
2019-02-27T07:49:52.814Z,28.73
2019-02-27T07:52:22.665Z,26.77
2019-02-27T07:54:52.800Z,25.33
2019-02-27T07:57:22.540Z,32.03
2019-02-27T07:59:52.931Z,28.23
2019-02-27T08:02:22.840Z,28.07
2019-02-27T08:04:54.649Z,27.70
2019-02-27T08:07:24.803Z,27.50
2019-02-27T08:09:54.741Z,28.10
2019-02-27T08:12:24.578Z,29.40
2019-02-27T08:14:54.442Z,29.23
2019-02-27T08:17:24.255Z,33.03
2019-02-27T08:19:54.015Z,28.47
2019-02-27T08:22:24.072Z,26.03
2019-02-27T08:24:53.867Z,25.27
2019-02-27T08:27:23.736Z,24.37
2019-02-27T08:29:53.583Z,28.00
2019-02-27T08:32:23.326Z,28.77
2019-02-27T08:34:53.141Z,32.23
2019-02-27T08:37:22.979Z,27.70
2019-02-27T08:39:52.814Z,28.67
2019-02-27T08:42:23.525Z,28.47
2019-02-27T08:44:53.424Z,25.60
2019-02-27T08:47:23.342Z,25.73
2019-02-27T08:49:57.652Z,27.47
2019-02-27T08:52:25.400Z,26.90
2019-02-27T08:54:55.263Z,24.40
2019-02-27T08:57:25.218Z,29.57
2019-02-27T08:59:55.158Z,26.30
2019-02-27T09:02:29.239Z,29.30
2019-02-27T09:04:56.868Z,23.20
2019-02-27T09:07:26.718Z,24.33
2019-02-27T09:09:56.537Z,21.50
2019-02-27T09:12:26.384Z,27.10
2019-02-27T09:14:56.285Z,25.40
2019-02-27T09:17:27.375Z,26.23
2019-02-27T09:19:57.754Z,24.93
2019-02-27T09:22:27.767Z,25.17
2019-02-27T09:24:57.969Z,26.87
2019-02-27T09:27:27.822Z,24.23
2019-02-27T09:29:57.660Z,23.27
2019-02-27T09:32:27.428Z,24.15
2019-02-27T09:34:59.661Z,24.20
2019-02-27T09:37:28.863Z,28.05
2019-02-27T09:39:58.632Z,24.55
2019-02-27T09:42:28.563Z,23.02
2019-02-27T09:44:58.786Z,26.30
2019-02-27T09:47:28.603Z,25.55
2019-02-27T09:49:58.944Z,26.57
2019-02-27T09:52:30.175Z,23.38
2019-02-27T09:55:00.912Z,26.40
2019-02-27T09:57:32.868Z,27.15
2019-02-27T10:00:02.981Z,21.27
2019-02-27T10:02:33.103Z,21.85
2019-02-27T10:05:03.827Z,17.75
2019-02-27T10:07:33.754Z,26.50
2019-02-27T10:10:03.771Z,25.40
2019-02-27T10:12:33.616Z,27.52
2019-02-27T10:15:03.561Z,21.90
2019-02-27T10:17:33.551Z,23.27
2019-02-27T10:20:03.826Z,24.12
2019-02-27T10:22:33.673Z,24.00
2019-02-27T10:25:03.524Z,23.45
2019-02-27T10:27:33.684Z,24.30
2019-02-27T10:30:11.361Z,25.97
2019-02-27T10:32:36.715Z,24.27
2019-02-27T10:35:07.333Z,26.23
2019-02-27T10:37:37.342Z,25.92
2019-02-27T10:40:11.455Z,20.85
2019-02-27T10:42:41.701Z,28.57
2019-02-27T10:45:11.622Z,25.57
2019-02-27T10:47:41.558Z,22.80
2019-02-27T10:50:12.600Z,22.85
2019-02-27T10:52:42.524Z,26.40
2019-02-27T10:55:14.206Z,27.25
2019-02-27T10:57:46.181Z,24.32
2019-02-27T11:00:25.074Z,22.95
2019-02-27T11:02:54.607Z,24.25
2019-02-27T11:05:24.863Z,23.42
2019-02-27T11:07:54.777Z,20.57
2019-02-27T11:10:25.328Z,21.35
2019-02-27T11:12:55.226Z,23.10
2019-02-27T11:15:25.290Z,25.40
2019-02-27T11:17:55.223Z,19.95
2019-02-27T11:20:25.094Z,26.62
2019-02-27T11:22:55.066Z,29.48
2019-02-27T11:25:25.248Z,24.20
2019-02-27T11:27:56.641Z,21.45
2019-02-27T11:30:29.435Z,21.52
2019-02-27T11:32:59.388Z,22.60
2019-02-27T11:35:29.318Z,23.65
2019-02-27T11:37:59.228Z,21.82
2019-02-27T11:40:29.437Z,23.20
2019-02-27T11:43:01.016Z,20.75
2019-02-27T11:45:31.449Z,25.17
2019-02-27T11:48:01.297Z,22.32
2019-02-27T11:50:31.508Z,23.98
2019-02-27T11:53:02.858Z,24.18
2019-02-27T11:55:32.802Z,21.37
2019-02-27T11:58:05.314Z,18.60
2019-02-27T12:00:34.393Z,23.27
2019-02-27T12:03:04.330Z,19.45
2019-02-27T12:05:34.566Z,21.17
2019-02-27T12:08:04.532Z,17.55
2019-02-27T12:10:34.363Z,16.80
2019-02-27T12:13:04.238Z,15.25
2019-02-27T12:15:34.438Z,18.98
2019-02-27T12:18:04.300Z,16.17
2019-02-27T12:20:34.269Z,12.73
2019-02-27T12:23:07.444Z,12.10
2019-02-27T12:25:36.680Z,11.60
2019-02-27T12:28:07.500Z,8.70
2019-02-27T12:30:38.397Z,8.15
2019-02-27T12:33:08.354Z,13.28
2019-02-27T12:35:38.300Z,10.70
2019-02-27T12:38:08.584Z,8.35
2019-02-27T12:40:38.504Z,4.95
2019-02-27T12:43:08.752Z,4.62
2019-02-27T12:45:38.651Z,4.00
2019-02-27T12:48:08.576Z,7.05
2019-02-27T12:50:38.433Z,3.40
2019-02-27T12:53:08.343Z,3.72
2019-02-27T12:55:38.146Z,7.17
2019-02-27T12:58:07.963Z,3.83
2019-02-27T13:00:39.893Z,4.50
2019-02-27T13:03:09.804Z,4.92
2019-02-27T13:05:39.606Z,4.62
2019-02-27T13:08:11.281Z,5.47
2019-02-27T13:10:41.151Z,5.05
2019-02-27T13:13:11.299Z,5.78
2019-02-27T13:15:41.781Z,6.28
2019-02-27T13:18:11.818Z,5.95
2019-02-27T13:20:42.992Z,6.67
2019-02-27T13:23:13.227Z,5.87
2019-02-27T13:25:43.062Z,5.53
2019-02-27T13:28:14.670Z,4.40
2019-02-27T13:30:44.505Z,4.50
2019-02-27T13:33:15.416Z,5.90
2019-02-27T13:35:45.225Z,6.00
2019-02-27T13:38:17.900Z,6.58
2019-02-27T13:40:46.668Z,5.25
2019-02-27T13:43:17.769Z,5.22
2019-02-27T13:45:48.235Z,5.55
2019-02-27T13:48:18.187Z,6.05
2019-02-27T13:50:48.553Z,5.10
2019-02-27T13:53:18.648Z,5.17
2019-02-27T13:55:49.008Z,6.97
2019-02-27T13:58:19.019Z,5.45
2019-02-27T14:00:48.886Z,5.75
2019-02-27T14:03:19.206Z,5.75
2019-02-27T14:05:49.099Z,7.10
2019-02-27T14:08:19.023Z,6.30
2019-02-27T14:10:50.515Z,7.78
2019-02-27T14:13:21.139Z,5.25
2019-02-27T14:15:50.962Z,6.55
2019-02-27T14:18:20.787Z,5.55
2019-02-27T14:20:50.795Z,6.97
2019-02-27T14:23:21.009Z,5.80
2019-02-27T14:25:50.805Z,6.17
2019-02-27T14:28:21.062Z,5.97
2019-02-27T14:30:51.704Z,6.05
2019-02-27T14:33:21.559Z,6.12
2019-02-27T14:35:51.309Z,4.72
2019-02-27T14:38:22.719Z,5.85
2019-02-27T14:40:53.283Z,8.13
2019-02-27T14:43:27.065Z,6.03
2019-02-27T14:45:54.791Z,8.05
2019-02-27T14:48:24.617Z,8.63
2019-02-27T14:50:54.452Z,4.70
2019-02-27T14:53:24.707Z,4.65
2019-02-27T14:55:54.629Z,7.17
2019-02-27T14:58:25.072Z,6.78
2019-02-27T15:00:55.101Z,4.40
2019-02-27T15:03:29.230Z,6.92
2019-02-27T15:05:56.591Z,5.22
2019-02-27T15:08:26.682Z,5.97
2019-02-27T15:10:56.698Z,4.87
2019-02-27T15:13:28.424Z,9.13
2019-02-27T15:15:58.174Z,4.87
2019-02-27T15:18:28.474Z,4.75
2019-02-27T15:20:58.346Z,5.20
2019-02-27T15:23:28.408Z,8.15
2019-02-27T15:25:59.285Z,7.22
2019-02-27T15:28:32.928Z,6.22
2019-02-27T15:31:00.791Z,6.80
2019-02-27T15:33:30.744Z,7.47
2019-02-27T15:36:00.902Z,7.70
2019-02-27T15:38:30.666Z,7.03
2019-02-27T15:41:03.239Z,10.35
2019-02-27T15:43:33.582Z,10.03
2019-02-27T15:46:03.553Z,11.00
2019-02-27T15:48:34.765Z,13.18
2019-02-27T15:51:04.687Z,18.98
2019-02-27T15:53:34.552Z,15.10
2019-02-27T15:56:05.490Z,13.35
2019-02-27T15:58:36.446Z,13.00
2019-02-27T16:01:06.326Z,13.38
2019-02-27T16:03:36.191Z,11.28
2019-02-27T16:06:06.731Z,11.20
2019-02-27T16:08:36.700Z,12.68
2019-02-27T16:11:06.533Z,8.18
2019-02-27T16:13:36.468Z,9.38
2019-02-27T16:16:07.298Z,8.03
2019-02-27T16:18:37.721Z,6.10
2019-02-27T16:21:07.781Z,10.23
2019-02-27T16:23:38.136Z,9.30
2019-02-27T16:26:08.279Z,8.83
2019-02-27T16:28:38.180Z,9.58
2019-02-27T16:31:08.009Z,10.25
2019-02-27T16:33:37.963Z,12.23
2019-02-27T16:36:07.864Z,8.78
2019-02-27T16:38:38.105Z,7.08
2019-02-27T16:41:07.995Z,7.47
2019-02-27T16:43:37.911Z,8.03
2019-02-27T16:46:08.895Z,8.80
2019-02-27T16:48:38.865Z,10.30
2019-02-27T16:51:08.680Z,10.40
2019-02-27T16:53:38.618Z,9.48
2019-02-27T16:56:11.793Z,9.15
2019-02-27T16:58:40.782Z,8.63
2019-02-27T17:01:10.742Z,9.85
2019-02-27T17:03:40.652Z,9.00
2019-02-27T17:06:10.515Z,8.80
2019-02-27T17:08:40.688Z,9.50
2019-02-27T17:11:10.601Z,9.35
2019-02-27T17:13:40.421Z,12.80
2019-02-27T17:16:10.679Z,10.50
2019-02-27T17:18:41.295Z,7.83
2019-02-27T17:21:11.145Z,11.30
2019-02-27T17:23:45.363Z,11.15
2019-02-27T17:26:13.343Z,12.55
2019-02-27T17:28:43.551Z,12.10
2019-02-27T17:31:13.497Z,10.40
2019-02-27T17:33:43.247Z,11.88
2019-02-27T17:36:13.427Z,11.55
2019-02-27T17:38:45.288Z,13.62
2019-02-27T17:41:14.866Z,25.37
2019-02-27T17:43:44.783Z,38.13
2019-02-27T17:46:14.684Z,26.57
2019-02-27T17:48:45.957Z,16.85
2019-02-27T17:51:16.551Z,16.27
2019-02-27T17:53:46.381Z,9.50
2019-02-27T17:56:16.260Z,11.33
2019-02-27T17:58:46.236Z,13.03
2019-02-27T18:01:18.837Z,12.00
2019-02-27T18:03:48.719Z,11.35
2019-02-27T18:06:18.655Z,15.03
2019-02-27T18:08:51.699Z,14.38
2019-02-27T18:11:20.518Z,13.40
2019-02-27T18:13:50.409Z,12.43
2019-02-27T18:16:20.312Z,11.80
2019-02-27T18:18:50.136Z,16.97
2019-02-27T18:21:20.356Z,13.88
2019-02-27T18:23:50.867Z,13.93
2019-02-27T18:26:20.794Z,13.78
2019-02-27T18:28:50.661Z,10.45
2019-02-27T18:31:20.826Z,13.55
2019-02-27T18:33:51.142Z,10.60
2019-02-27T18:36:22.040Z,11.60
2019-02-27T18:38:52.244Z,12.10
2019-02-27T18:41:22.511Z,11.08
2019-02-27T18:43:52.972Z,13.18
2019-02-27T18:46:24.685Z,14.03
2019-02-27T18:48:55.440Z,12.45
2019-02-27T18:51:25.640Z,12.33
2019-02-27T18:53:55.738Z,12.65
2019-02-27T18:56:25.786Z,13.90
2019-02-27T18:58:56.449Z,12.75
2019-02-27T19:01:26.342Z,12.37
2019-02-27T19:04:00.301Z,13.98
2019-02-27T19:06:27.716Z,9.78
2019-02-27T19:08:59.586Z,14.75
2019-02-27T19:11:29.268Z,11.95
2019-02-27T19:13:59.104Z,12.98
2019-02-27T19:16:28.943Z,15.18
2019-02-27T19:18:59.182Z,12.80
2019-02-27T19:21:32.779Z,14.13
2019-02-27T19:24:01.206Z,10.80
2019-02-27T19:26:31.027Z,16.85
2019-02-27T19:29:00.948Z,13.83
2019-02-27T19:31:30.899Z,16.45
2019-02-27T19:34:00.889Z,19.55
2019-02-27T19:36:31.506Z,17.35
2019-02-27T19:39:01.446Z,19.32
2019-02-27T19:41:38.721Z,22.70
2019-02-27T19:44:04.916Z,24.63
2019-02-27T19:46:34.859Z,21.00
2019-02-27T19:49:04.740Z,14.45
2019-02-27T19:51:34.692Z,17.77
2019-02-27T19:54:04.867Z,19.20
2019-02-27T19:56:35.500Z,17.30
2019-02-27T19:59:06.427Z,17.07
2019-02-27T20:01:36.588Z,15.10
2019-02-27T20:04:09.439Z,17.30
2019-02-27T20:06:38.513Z,18.87
2019-02-27T20:09:08.294Z,14.13
2019-02-27T20:11:41.064Z,16.90
2019-02-27T20:14:12.131Z,17.27
2019-02-27T20:16:42.292Z,14.47
2019-02-27T20:19:12.455Z,15.03
2019-02-27T20:21:44.600Z,19.93
2019-02-27T20:24:14.790Z,15.20
2019-02-27T20:26:44.997Z,15.13
2019-02-27T20:29:14.935Z,16.27
2019-02-27T20:31:44.726Z,16.97
2019-02-27T20:34:14.683Z,15.77
2019-02-27T20:36:44.661Z,13.80
2019-02-27T20:39:14.917Z,13.80
2019-02-27T20:41:44.945Z,19.63
2019-02-27T20:44:14.973Z,19.70
2019-02-27T20:46:46.350Z,16.83
2019-02-27T20:49:16.455Z,19.20
2019-02-27T20:51:46.385Z,19.27
2019-02-27T20:54:16.217Z,16.53
2019-02-27T20:56:55.185Z,15.33
2019-02-27T20:59:19.026Z,21.27
2019-02-27T21:01:49.178Z,18.90
2019-02-27T21:04:19.066Z,23.27
2019-02-27T21:06:49.012Z,19.03
2019-02-27T21:09:19.102Z,18.57
2019-02-27T21:11:48.959Z,17.60
2019-02-27T21:14:20.550Z,20.63
2019-02-27T21:16:50.720Z,19.90
2019-02-27T21:19:20.562Z,22.90
2019-02-27T21:21:53.660Z,20.37
2019-02-27T21:24:22.667Z,18.07
2019-02-27T21:26:54.181Z,19.23
2019-02-27T21:29:25.445Z,18.47
2019-02-27T21:31:58.243Z,16.87
2019-02-27T21:34:26.997Z,17.97
2019-02-27T21:36:57.206Z,25.77
2019-02-27T21:39:28.413Z,17.47
2019-02-27T21:41:58.624Z,19.00
2019-02-27T21:44:29.813Z,22.63
2019-02-27T21:47:00.447Z,20.00
2019-02-27T21:49:32.230Z,20.17
2019-02-27T21:52:01.906Z,21.80
2019-02-27T21:54:31.848Z,22.23
2019-02-27T21:57:01.671Z,16.73
2019-02-27T21:59:32.595Z,21.83
2019-02-27T22:02:02.854Z,20.47
2019-02-27T22:04:34.330Z,21.23
2019-02-27T22:07:04.293Z,21.77
2019-02-27T22:09:34.476Z,20.53
2019-02-27T22:12:04.758Z,24.23
2019-02-27T22:14:34.985Z,20.43
2019-02-27T22:17:05.947Z,21.43
2019-02-27T22:19:35.899Z,23.87
2019-02-27T22:22:08.103Z,17.77
2019-02-27T22:24:37.228Z,17.73
2019-02-27T22:27:09.233Z,23.60
2019-02-27T22:29:38.741Z,18.40
2019-02-27T22:32:08.647Z,20.60
2019-02-27T22:34:38.525Z,22.97
2019-02-27T22:37:08.444Z,19.53
2019-02-27T22:39:38.264Z,24.93
2019-02-27T22:42:08.094Z,24.47
2019-02-27T22:44:38.038Z,22.23
2019-02-27T22:47:07.965Z,23.30
2019-02-27T22:49:38.155Z,24.30
2019-02-27T22:52:08.460Z,25.00
2019-02-27T22:54:38.271Z,20.10
2019-02-27T22:57:08.128Z,31.33
2019-02-27T22:59:38.132Z,23.53
2019-02-27T23:02:08.152Z,25.57
2019-02-27T23:04:38.346Z,24.87
2019-02-27T23:07:08.267Z,24.20
2019-02-27T23:09:38.117Z,24.20
2019-02-27T23:12:09.231Z,21.23
2019-02-27T23:14:39.128Z,25.93
2019-02-27T23:17:08.953Z,26.10
2019-02-27T23:19:38.842Z,23.77
2019-02-27T23:22:10.408Z,24.27
2019-02-27T23:24:43.603Z,23.03
2019-02-27T23:27:18.078Z,23.33
2019-02-27T23:29:48.136Z,26.23
2019-02-27T23:32:18.028Z,24.57
2019-02-27T23:34:47.973Z,27.67
2019-02-27T23:37:17.819Z,33.23
2019-02-27T23:39:47.760Z,29.80
2019-02-27T23:42:17.584Z,22.70
2019-02-27T23:44:47.499Z,24.53
2019-02-27T23:47:17.337Z,27.10
2019-02-27T23:49:47.182Z,26.53
2019-02-27T23:52:19.236Z,25.77
2019-02-27T23:54:48.873Z,29.10
2019-02-27T23:57:18.788Z,25.70
2019-02-27T23:59:48.723Z,33.77
